sensor_id;sensor_type;location;lat;lon;timestamp;pressure;altitude;pressure_sealevel;temperature;humidity
41945;BME280;63122;52.424;13.458;2022-11-15T00:01:30;100804.47;;;6.79;84.32
41945;BME280;63122;52.424;13.458;2022-11-15T00:04:03;100806.13;;;6.80;84.34
41945;BME280;63122;52.424;13.458;2022-11-15T00:06:34;100809.16;;;6.75;84.67
41945;BME280;63122;52.424;13.458;2022-11-15T00:09:04;100808.28;;;6.86;84.33
41945;BME280;63122;52.424;13.458;2022-11-15T00:11:34;100804.81;;;6.86;84.10
41945;BME280;63122;52.424;13.458;2022-11-15T00:14:05;100796.75;;;6.77;84.14
41945;BME280;63122;52.424;13.458;2022-11-15T00:16:35;100799.88;;;6.71;84.82
41945;BME280;63122;52.424;13.458;2022-11-15T00:19:08;100800.44;;;6.75;84.81
41945;BME280;63122;52.424;13.458;2022-11-15T00:21:39;100789.28;;;6.61;85.23
41945;BME280;63122;52.424;13.458;2022-11-15T00:24:10;100782.97;;;6.53;85.87
41945;BME280;63122;52.424;13.458;2022-11-15T00:26:40;100786.19;;;6.56;85.74
41945;BME280;63122;52.424;13.458;2022-11-15T00:29:11;100782.97;;;6.53;85.88
41945;BME280;63122;52.424;13.458;2022-11-15T00:31:41;100792.47;;;6.65;85.53
41945;BME280;63122;52.424;13.458;2022-11-15T00:34:14;100776.38;;;6.70;85.24
41945;BME280;63122;52.424;13.458;2022-11-15T00:36:44;100778.34;;;6.56;85.77
41945;BME280;63122;52.424;13.458;2022-11-15T00:39:14;100775.56;;;6.58;85.79
41945;BME280;63122;52.424;13.458;2022-11-15T00:41:45;100775.72;;;6.56;85.74
41945;BME280;63122;52.424;13.458;2022-11-15T00:44:15;100777.38;;;6.46;86.06
41945;BME280;63122;52.424;13.458;2022-11-15T00:46:45;100774.50;;;6.49;86.05
41945;BME280;63122;52.424;13.458;2022-11-15T00:49:18;100777.03;;;6.39;85.82
41945;BME280;63122;52.424;13.458;2022-11-15T00:51:48;100766.53;;;6.39;85.99
41945;BME280;63122;52.424;13.458;2022-11-15T00:54:18;100773.38;;;6.30;85.78
41945;BME280;63122;52.424;13.458;2022-11-15T00:56:49;100763.59;;;6.32;86.12
41945;BME280;63122;52.424;13.458;2022-11-15T00:59:19;100767.03;;;6.33;85.93
41945;BME280;63122;52.424;13.458;2022-11-15T01:01:49;100756.94;;;6.17;86.73
41945;BME280;63122;52.424;13.458;2022-11-15T01:04:22;100763.59;;;6.21;86.58
41945;BME280;63122;52.424;13.458;2022-11-15T01:06:52;100757.88;;;6.27;86.22
41945;BME280;63122;52.424;13.458;2022-11-15T01:09:23;100758.13;;;6.13;86.53
41945;BME280;63122;52.424;13.458;2022-11-15T01:11:53;100748.59;;;6.12;86.63
41945;BME280;63122;52.424;13.458;2022-11-15T01:14:23;100746.34;;;6.07;86.78
41945;BME280;63122;52.424;13.458;2022-11-15T01:16:53;100758.38;;;6.10;86.74
41945;BME280;63122;52.424;13.458;2022-11-15T01:19:26;100749.31;;;6.14;86.64
41945;BME280;63122;52.424;13.458;2022-11-15T01:21:56;100749.81;;;6.08;86.81
41945;BME280;63122;52.424;13.458;2022-11-15T01:24:27;100734.34;;;6.04;86.99
41945;BME280;63122;52.424;13.458;2022-11-15T01:26:57;100745.75;;;6.03;87.62
41945;BME280;63122;52.424;13.458;2022-11-15T01:29:28;100743.47;;;5.99;87.37
41945;BME280;63122;52.424;13.458;2022-11-15T01:31:58;100735.72;;;5.97;87.47
41945;BME280;63122;52.424;13.458;2022-11-15T01:34:31;100741.44;;;5.91;87.34
41945;BME280;63122;52.424;13.458;2022-11-15T01:37:01;100724.78;;;5.92;87.64
41945;BME280;63122;52.424;13.458;2022-11-15T01:39:31;100724.66;;;5.94;87.62
41945;BME280;63122;52.424;13.458;2022-11-15T01:42:02;100723.81;;;5.93;87.56
41945;BME280;63122;52.424;13.458;2022-11-15T01:44:44;100716.31;;;6.00;87.12
41945;BME280;63122;52.424;13.458;2022-11-15T01:47:17;100713.81;;;5.98;87.24
41945;BME280;63122;52.424;13.458;2022-11-15T01:49:55;100709.91;;;6.04;87.29
41945;BME280;63122;52.424;13.458;2022-11-15T01:52:29;100707.91;;;6.08;86.77
41945;BME280;63122;52.424;13.458;2022-11-15T01:55:03;100705.78;;;6.01;87.37
41945;BME280;63122;52.424;13.458;2022-11-15T01:57:35;100700.84;;;5.97;87.55
41945;BME280;63122;52.424;13.458;2022-11-15T02:00:07;100691.13;;;5.87;87.84
41945;BME280;63122;52.424;13.458;2022-11-15T02:02:38;100683.59;;;5.83;88.66
41945;BME280;63122;52.424;13.458;2022-11-15T02:05:11;100689.56;;;5.85;88.91
41945;BME280;63122;52.424;13.458;2022-11-15T02:07:41;100688.94;;;5.81;88.90
41945;BME280;63122;52.424;13.458;2022-11-15T02:10:14;100686.34;;;5.81;88.93
41945;BME280;63122;52.424;13.458;2022-11-15T02:12:47;100683.00;;;5.90;88.60
41945;BME280;63122;52.424;13.458;2022-11-15T02:15:18;100683.00;;;5.90;88.43
41945;BME280;63122;52.424;13.458;2022-11-15T02:17:58;100676.13;;;5.89;88.49
41945;BME280;63122;52.424;13.458;2022-11-15T02:20:42;100678.25;;;5.96;88.01
41945;BME280;63122;52.424;13.458;2022-11-15T02:23:37;100686.19;;;5.94;88.31
41945;BME280;63122;52.424;13.458;2022-11-15T02:29:26;100681.69;;;5.96;88.50
41945;BME280;63122;52.424;13.458;2022-11-15T02:32:05;100684.53;;;5.93;88.67
41945;BME280;63122;52.424;13.458;2022-11-15T02:34:50;100684.19;;;5.98;88.28
41945;BME280;63122;52.424;13.458;2022-11-15T02:37:25;100685.97;;;5.86;88.75
41945;BME280;63122;52.424;13.458;2022-11-15T02:40:06;100681.81;;;5.83;89.20
41945;BME280;63122;52.424;13.458;2022-11-15T02:42:43;100685.03;;;5.87;89.02
41945;BME280;63122;52.424;13.458;2022-11-15T02:45:37;100678.13;;;5.86;89.10
41945;BME280;63122;52.424;13.458;2022-11-15T02:48:12;100685.03;;;5.87;89.06
41945;BME280;63122;52.424;13.458;2022-11-15T02:50:43;100677.63;;;5.92;88.91
41945;BME280;63122;52.424;13.458;2022-11-15T02:53:15;100671.22;;;5.85;89.51
41945;BME280;63122;52.424;13.458;2022-11-15T02:55:46;100666.59;;;5.88;89.69
41945;BME280;63122;52.424;13.458;2022-11-15T02:58:37;100671.22;;;5.85;89.83
41945;BME280;63122;52.424;13.458;2022-11-15T03:01:16;100672.66;;;5.89;89.38
41945;BME280;63122;52.424;13.458;2022-11-15T03:04:01;100666.09;;;5.83;89.70
41945;BME280;63122;52.424;13.458;2022-11-15T03:06:37;100663.88;;;5.79;90.31
41945;BME280;63122;52.424;13.458;2022-11-15T03:09:23;100664.81;;;5.78;90.29
41945;BME280;63122;52.424;13.458;2022-11-15T03:12:01;100663.88;;;5.79;89.86
41945;BME280;63122;52.424;13.458;2022-11-15T03:14:35;100665.06;;;5.74;90.56
41945;BME280;63122;52.424;13.458;2022-11-15T03:17:12;100662.06;;;5.79;89.84
41945;BME280;63122;52.424;13.458;2022-11-15T03:19:49;100658.25;;;5.72;90.45
41945;BME280;63122;52.424;13.458;2022-11-15T03:22:23;100659.69;;;5.76;90.51
41945;BME280;63122;52.424;13.458;2022-11-15T03:24:57;100664.22;;;5.74;90.32
41945;BME280;63122;52.424;13.458;2022-11-15T03:27:33;100666.72;;;5.75;90.27
41945;BME280;63122;52.424;13.458;2022-11-15T03:30:07;100656.72;;;5.69;90.38
41945;BME280;63122;52.424;13.458;2022-11-15T03:32:41;100663.41;;;5.73;90.38
41945;BME280;63122;52.424;13.458;2022-11-15T03:35:19;100664.34;;;5.72;90.26
41945;BME280;63122;52.424;13.458;2022-11-15T03:37:54;100659.69;;;5.76;90.43
41945;BME280;63122;52.424;13.458;2022-11-15T03:40:31;100659.81;;;5.74;90.21
41945;BME280;63122;52.424;13.458;2022-11-15T03:43:09;100659.81;;;5.74;90.45
41945;BME280;63122;52.424;13.458;2022-11-15T03:45:45;100657.06;;;5.76;90.26
41945;BME280;63122;52.424;13.458;2022-11-15T03:48:21;100657.06;;;5.76;90.20
41945;BME280;63122;52.424;13.458;2022-11-15T03:50:55;100645.78;;;5.75;90.44
41945;BME280;63122;52.424;13.458;2022-11-15T03:53:27;100653.03;;;5.72;90.16
41945;BME280;63122;52.424;13.458;2022-11-15T03:55:59;100653.13;;;5.70;89.96
41945;BME280;63122;52.424;13.458;2022-11-15T03:58:29;100654.94;;;5.70;89.72
41945;BME280;63122;52.424;13.458;2022-11-15T04:00:59;100653.16;;;5.59;90.23
41945;BME280;63122;52.424;13.458;2022-11-15T04:03:30;100646.97;;;5.48;90.72
41945;BME280;63122;52.424;13.458;2022-11-15T04:06:04;100646.75;;;5.52;90.59
41945;BME280;63122;52.424;13.458;2022-11-15T04:08:34;100641.84;;;5.47;90.99
41945;BME280;63122;52.424;13.458;2022-11-15T04:11:04;100644.38;;;5.48;91.01
41945;BME280;63122;52.424;13.458;2022-11-15T04:13:34;100641.50;;;5.52;90.80
41945;BME280;63122;52.424;13.458;2022-11-15T04:16:04;100638.19;;;5.50;91.22
41945;BME280;63122;52.424;13.458;2022-11-15T04:18:34;100631.84;;;5.52;91.15
41945;BME280;63122;52.424;13.458;2022-11-15T04:21:08;100638.50;;;5.56;91.57
41945;BME280;63122;52.424;13.458;2022-11-15T04:23:50;100630.56;;;5.58;91.30
41945;BME280;63122;52.424;13.458;2022-11-15T04:26:41;100631.50;;;5.57;91.68
41945;BME280;63122;52.424;13.458;2022-11-15T04:29:11;100629.50;;;5.60;91.09
41945;BME280;63122;52.424;13.458;2022-11-15T04:31:54;100631.03;;;5.52;91.72
41945;BME280;63122;52.424;13.458;2022-11-15T04:34:24;100623.56;;;5.58;91.41
41945;BME280;63122;52.424;13.458;2022-11-15T04:36:57;100629.00;;;5.55;91.55
41945;BME280;63122;52.424;13.458;2022-11-15T04:39:40;100630.78;;;5.55;91.67
41945;BME280;63122;52.424;13.458;2022-11-15T04:42:11;100625.31;;;5.58;91.60
41945;BME280;63122;52.424;13.458;2022-11-15T04:44:41;100624.00;;;5.52;91.96
41945;BME280;63122;52.424;13.458;2022-11-15T04:47:12;100621.03;;;5.57;91.84
41945;BME280;63122;52.424;13.458;2022-11-15T04:49:42;100628.78;;;5.58;91.76
41945;BME280;63122;52.424;13.458;2022-11-15T04:52:16;100633.53;;;5.53;91.88
41945;BME280;63122;52.424;13.458;2022-11-15T04:54:48;100624.72;;;5.54;92.15
41945;BME280;63122;52.424;13.458;2022-11-15T04:57:19;100624.25;;;5.60;91.77
41945;BME280;63122;52.424;13.458;2022-11-15T04:59:49;100624.59;;;5.56;91.86
41945;BME280;63122;52.424;13.458;2022-11-15T05:02:20;100620.31;;;5.55;92.01
41945;BME280;63122;52.424;13.458;2022-11-15T05:04:50;100626.50;;;5.54;91.93
41945;BME280;63122;52.424;13.458;2022-11-15T05:07:21;100619.63;;;5.53;91.70
41945;BME280;63122;52.424;13.458;2022-11-15T05:09:52;100610.56;;;5.57;91.58
41945;BME280;63122;52.424;13.458;2022-11-15T05:12:22;100602.22;;;5.63;91.05
41945;BME280;63122;52.424;13.458;2022-11-15T05:14:52;100609.00;;;5.54;91.31
41945;BME280;63122;52.424;13.458;2022-11-15T05:17:23;100619.72;;;5.51;91.69
41945;BME280;63122;52.424;13.458;2022-11-15T05:19:53;100618.44;;;5.45;91.61
41945;BME280;63122;52.424;13.458;2022-11-15T05:22:26;100617.50;;;5.46;91.25
41945;BME280;63122;52.424;13.458;2022-11-15T05:24:56;100608.44;;;5.39;91.59
41945;BME280;63122;52.424;13.458;2022-11-15T05:27:27;100606.06;;;5.47;91.50
41945;BME280;63122;52.424;13.458;2022-11-15T05:29:57;100606.41;;;5.43;91.42
41945;BME280;63122;52.424;13.458;2022-11-15T05:32:27;100605.34;;;5.45;91.40
41945;BME280;63122;52.424;13.458;2022-11-15T05:34:58;100612.00;;;5.38;91.50
41945;BME280;63122;52.424;13.458;2022-11-15T05:37:31;100617.09;;;5.51;90.91
41945;BME280;63122;52.424;13.458;2022-11-15T05:40:03;100618.06;;;5.50;90.20
41945;BME280;63122;52.424;13.458;2022-11-15T05:42:33;100615.81;;;5.57;89.72
41945;BME280;63122;52.424;13.458;2022-11-15T05:45:06;100620.19;;;5.56;89.12
41945;BME280;63122;52.424;13.458;2022-11-15T05:47:38;100620.69;;;5.50;89.27
41945;BME280;63122;52.424;13.458;2022-11-15T05:50:11;100620.22;;;5.45;89.26
41945;BME280;63122;52.424;13.458;2022-11-15T05:52:45;100626.28;;;5.45;89.25
41945;BME280;63122;52.424;13.458;2022-11-15T05:55:16;100622.59;;;5.48;89.30
41945;BME280;63122;52.424;13.458;2022-11-15T05:57:46;100622.81;;;5.45;89.30
41945;BME280;63122;52.424;13.458;2022-11-15T06:00:17;100620.09;;;5.46;89.04
41945;BME280;63122;52.424;13.458;2022-11-15T06:02:48;100615.94;;;5.44;89.47
41945;BME280;63122;52.424;13.458;2022-11-15T06:05:18;100621.41;;;5.41;89.61
41945;BME280;63122;52.424;13.458;2022-11-15T06:07:51;100623.53;;;5.36;90.23
41945;BME280;63122;52.424;13.458;2022-11-15T06:10:21;100619.03;;;5.38;90.10
41945;BME280;63122;52.424;13.458;2022-11-15T06:12:56;100621.41;;;5.41;89.61
41945;BME280;63122;52.424;13.458;2022-11-15T06:15:27;100616.66;;;5.35;90.03
41945;BME280;63122;52.424;13.458;2022-11-15T06:17:57;100617.84;;;5.30;91.11
41945;BME280;63122;52.424;13.458;2022-11-15T06:20:29;100627.81;;;5.25;92.13
41945;BME280;63122;52.424;13.458;2022-11-15T06:23:03;100635.31;;;5.30;92.13
41945;BME280;63122;52.424;13.458;2022-11-15T06:25:34;100635.66;;;5.25;92.43
41945;BME280;63122;52.424;13.458;2022-11-15T06:28:04;100635.78;;;5.24;92.63
41945;BME280;63122;52.424;13.458;2022-11-15T06:30:35;100637.44;;;5.25;92.87
41945;BME280;63122;52.424;13.458;2022-11-15T06:33:05;100641.38;;;5.30;92.66
41945;BME280;63122;52.424;13.458;2022-11-15T06:35:36;100640.44;;;5.31;92.81
41945;BME280;63122;52.424;13.458;2022-11-15T06:38:10;100631.25;;;5.26;93.19
41945;BME280;63122;52.424;13.458;2022-11-15T06:40:40;100632.31;;;5.23;93.53
41945;BME280;63122;52.424;13.458;2022-11-15T06:43:11;100629.84;;;5.22;93.77
41945;BME280;63122;52.424;13.458;2022-11-15T06:45:41;100639.13;;;5.26;93.89
41945;BME280;63122;52.424;13.458;2022-11-15T06:48:12;100641.25;;;5.32;93.18
41945;BME280;63122;52.424;13.458;2022-11-15T06:50:42;100638.03;;;5.28;93.19
41945;BME280;63122;52.424;13.458;2022-11-15T06:53:15;100636.25;;;5.29;93.45
41945;BME280;63122;52.424;13.458;2022-11-15T06:55:45;100640.66;;;5.28;93.38
41945;BME280;63122;52.424;13.458;2022-11-15T06:58:21;100643.88;;;5.32;93.05
41945;BME280;63122;52.424;13.458;2022-11-15T07:00:51;100649.09;;;5.32;92.88
41945;BME280;63122;52.424;13.458;2022-11-15T07:03:22;100645.78;;;5.30;92.73
41945;BME280;63122;52.424;13.458;2022-11-15T07:05:53;100643.63;;;5.24;92.89
41945;BME280;63122;52.424;13.458;2022-11-15T07:08:34;100638.63;;;5.21;92.82
41945;BME280;63122;52.424;13.458;2022-11-15T07:11:07;100630.91;;;5.19;92.88
41945;BME280;63122;52.424;13.458;2022-11-15T07:13:38;100648.59;;;5.15;92.87
41945;BME280;63122;52.424;13.458;2022-11-15T07:16:09;100652.88;;;5.16;92.73
41945;BME280;63122;52.424;13.458;2022-11-15T07:18:40;100658.84;;;5.18;93.03
41945;BME280;63122;52.424;13.458;2022-11-15T07:21:10;100654.09;;;5.24;92.69
41945;BME280;63122;52.424;13.458;2022-11-15T07:23:44;100653.72;;;5.17;92.92
41945;BME280;63122;52.424;13.458;2022-11-15T07:26:14;100658.63;;;5.22;93.26
41945;BME280;63122;52.424;13.458;2022-11-15T07:28:44;100665.03;;;5.29;92.75
41945;BME280;63122;52.424;13.458;2022-11-15T07:31:14;100655.03;;;5.34;92.56
41945;BME280;63122;52.424;13.458;2022-11-15T07:33:44;100652.19;;;5.37;92.25
41945;BME280;63122;52.424;13.458;2022-11-15T07:36:15;100658.63;;;5.44;92.45
41945;BME280;63122;52.424;13.458;2022-11-15T07:38:48;100660.78;;;5.51;92.01
41945;BME280;63122;52.424;13.458;2022-11-15T07:41:18;100657.06;;;5.53;91.76
41945;BME280;63122;52.424;13.458;2022-11-15T07:43:51;100660.91;;;5.60;91.59
41945;BME280;63122;52.424;13.458;2022-11-15T07:46:21;100663.03;;;5.67;91.39
41945;BME280;63122;52.424;13.458;2022-11-15T07:48:51;100660.63;;;5.75;91.06
41945;BME280;63122;52.424;13.458;2022-11-15T07:51:21;100661.25;;;5.79;90.87
41945;BME280;63122;52.424;13.458;2022-11-15T07:53:54;100669.44;;;5.85;90.44
41945;BME280;63122;52.424;13.458;2022-11-15T07:56:24;100660.03;;;5.94;90.19
41945;BME280;63122;52.424;13.458;2022-11-15T07:58:55;100659.56;;;6.00;89.82
41945;BME280;63122;52.424;13.458;2022-11-15T08:01:26;100649.56;;;6.05;89.66
41945;BME280;63122;52.424;13.458;2022-11-15T08:03:56;100647.06;;;6.15;89.21
41945;BME280;63122;52.424;13.458;2022-11-15T08:06:26;100644.63;;;6.24;88.69
41945;BME280;63122;52.424;13.458;2022-11-15T08:09:00;100641.53;;;6.30;88.44
41945;BME280;63122;52.424;13.458;2022-11-15T08:11:30;100641.72;;;6.38;88.42
41945;BME280;63122;52.424;13.458;2022-11-15T08:14:00;100640.16;;;6.47;88.05
41945;BME280;63122;52.424;13.458;2022-11-15T08:16:30;100640.34;;;6.55;88.01
41945;BME280;63122;52.424;13.458;2022-11-15T08:19:01;100639.59;;;6.65;88.03
41945;BME280;63122;52.424;13.458;2022-11-15T08:21:31;100639.78;;;6.73;88.10
41945;BME280;63122;52.424;13.458;2022-11-15T08:24:05;100642.59;;;6.81;87.66
41945;BME280;63122;52.424;13.458;2022-11-15T08:26:35;100640.81;;;6.82;87.62
41945;BME280;63122;52.424;13.458;2022-11-15T08:29:06;100636.47;;;6.92;87.55
41945;BME280;63122;52.424;13.458;2022-11-15T08:31:39;100639.41;;;6.99;87.32
41945;BME280;63122;52.424;13.458;2022-11-15T08:34:10;100633.25;;;7.10;87.30
41945;BME280;63122;52.424;13.458;2022-11-15T08:36:40;100632.41;;;7.30;86.57
41945;BME280;63122;52.424;13.458;2022-11-15T08:39:15;100633.28;;;7.41;85.40
41945;BME280;63122;52.424;13.458;2022-11-15T08:41:45;100634.50;;;7.37;86.35
41945;BME280;63122;52.424;13.458;2022-11-15T08:44:15;100638.03;;;7.57;85.75
41945;BME280;63122;52.424;13.458;2022-11-15T08:46:45;100628.66;;;7.64;85.54
41945;BME280;63122;52.424;13.458;2022-11-15T08:49:16;100632.81;;;7.67;86.10
41945;BME280;63122;52.424;13.458;2022-11-15T08:51:46;100628.06;;;7.91;84.66
41945;BME280;63122;52.424;13.458;2022-11-15T08:54:19;100634.03;;;8.03;84.36
41945;BME280;63122;52.424;13.458;2022-11-15T08:56:49;100639.16;;;8.15;83.78
41945;BME280;63122;52.424;13.458;2022-11-15T08:59:19;100637.47;;;8.14;82.90
41945;BME280;63122;52.424;13.458;2022-11-15T09:01:49;100633.09;;;8.24;81.94
41945;BME280;63122;52.424;13.458;2022-11-15T09:04:20;100642.91;;;8.42;81.25
41945;BME280;63122;52.424;13.458;2022-11-15T09:06:50;100641.94;;;8.43;80.78
41945;BME280;63122;52.424;13.458;2022-11-15T09:09:23;100639.91;;;8.56;81.09
41945;BME280;63122;52.424;13.458;2022-11-15T09:11:53;100640.84;;;8.35;81.71
41945;BME280;63122;52.424;13.458;2022-11-15T09:14:29;100635.56;;;8.85;80.42
41945;BME280;63122;52.424;13.458;2022-11-15T09:16:59;100638.75;;;8.98;79.69
41945;BME280;63122;52.424;13.458;2022-11-15T09:19:30;100630.09;;;9.16;78.32
41945;BME280;63122;52.424;13.458;2022-11-15T09:22:01;100631.66;;;9.46;76.70
41945;BME280;63122;52.424;13.458;2022-11-15T09:24:34;100630.66;;;9.19;78.17
41945;BME280;63122;52.424;13.458;2022-11-15T09:27:04;100631.84;;;9.63;75.50
41945;BME280;63122;52.424;13.458;2022-11-15T09:29:34;100634.25;;;9.56;76.04
41945;BME280;63122;52.424;13.458;2022-11-15T09:32:04;100637.75;;;9.47;77.42
41945;BME280;63122;52.424;13.458;2022-11-15T09:34:35;100632.94;;;9.98;74.33
41945;BME280;63122;52.424;13.458;2022-11-15T09:37:05;100648.22;;;9.29;77.11
41945;BME280;63122;52.424;13.458;2022-11-15T09:39:38;100640.81;;;9.04;78.60
41945;BME280;63122;52.424;13.458;2022-11-15T09:42:20;100652.88;;;9.35;77.61
41945;BME280;63122;52.424;13.458;2022-11-15T09:45:03;100646.59;;;9.84;75.76
41945;BME280;63122;52.424;13.458;2022-11-15T09:47:59;100647.59;;;10.19;73.63
41945;BME280;63122;52.424;13.458;2022-11-15T09:50:36;100643.19;;;10.19;73.81
41945;BME280;63122;52.424;13.458;2022-11-15T09:53:11;100638.88;;;10.73;71.87
41945;BME280;63122;52.424;13.458;2022-11-15T09:55:53;100640.53;;;10.92;71.33
41945;BME280;63122;52.424;13.458;2022-11-15T09:58:30;100642.22;;;11.01;70.46
41945;BME280;63122;52.424;13.458;2022-11-15T10:01:08;100632.34;;;11.03;70.10
41945;BME280;63122;52.424;13.458;2022-11-15T10:03:41;100640.13;;;10.60;72.05
41945;BME280;63122;52.424;13.458;2022-11-15T10:06:21;100624.88;;;10.99;70.21
41945;BME280;63122;52.424;13.458;2022-11-15T10:08:58;100628.03;;;11.29;69.59
41945;BME280;63122;52.424;13.458;2022-11-15T10:11:35;100618.34;;;10.85;70.54
41945;BME280;63122;52.424;13.458;2022-11-15T10:14:10;100618.44;;;10.93;70.59
41945;BME280;63122;52.424;13.458;2022-11-15T10:17:01;100611.16;;;11.21;69.64
41945;BME280;63122;52.424;13.458;2022-11-15T10:19:42;100605.91;;;10.50;71.60
41945;BME280;63122;52.424;13.458;2022-11-15T10:22:25;100603.34;;;11.12;69.88
41945;BME280;63122;52.424;13.458;2022-11-15T10:25:08;100589.59;;;11.77;68.37
41945;BME280;63122;52.424;13.458;2022-11-15T10:27:47;100586.13;;;11.85;68.43
41945;BME280;63122;52.424;13.458;2022-11-15T10:30:20;100589.03;;;12.33;66.05
41945;BME280;63122;52.424;13.458;2022-11-15T10:32:50;100581.75;;;12.19;66.38
41945;BME280;63122;52.424;13.458;2022-11-15T10:35:23;100577.63;;;12.16;66.75
41945;BME280;63122;52.424;13.458;2022-11-15T10:38:05;100574.47;;;12.13;66.76
41945;BME280;63122;52.424;13.458;2022-11-15T10:40:36;100571.34;;;12.17;67.75
41945;BME280;63122;52.424;13.458;2022-11-15T10:43:17;100561.59;;;12.43;66.95
41945;BME280;63122;52.424;13.458;2022-11-15T10:45:47;100558.13;;;12.42;66.99
41945;BME280;63122;52.424;13.458;2022-11-15T10:48:24;100553.66;;;12.09;67.54
41945;BME280;63122;52.424;13.458;2022-11-15T10:50:55;100554.63;;;12.75;65.32
41945;BME280;63122;52.424;13.458;2022-11-15T10:53:30;100546.22;;;13.11;63.42
41945;BME280;63122;52.424;13.458;2022-11-15T10:56:03;100547.34;;;13.25;62.99
41945;BME280;63122;52.424;13.458;2022-11-15T10:58:41;100543.88;;;13.88;60.38
41945;BME280;63122;52.424;13.458;2022-11-15T11:01:15;100547.38;;;14.11;59.85
41945;BME280;63122;52.424;13.458;2022-11-15T11:03:58;100555.25;;;12.85;63.89
41945;BME280;63122;52.424;13.458;2022-11-15T11:06:29;100546.34;;;13.89;60.97
41945;BME280;63122;52.424;13.458;2022-11-15T11:09:02;100534.97;;;13.80;60.67
41945;BME280;63122;52.424;13.458;2022-11-15T11:11:45;100533.03;;;14.74;57.95
41945;BME280;63122;52.424;13.458;2022-11-15T11:14:21;100527.09;;;15.02;57.50
41945;BME280;63122;52.424;13.458;2022-11-15T11:16:55;100527.34;;;14.92;57.76
41945;BME280;63122;52.424;13.458;2022-11-15T11:19:53;100528.28;;;14.85;57.99
41945;BME280;63122;52.424;13.458;2022-11-15T11:22:32;100529.94;;;14.47;58.17
41945;BME280;63122;52.424;13.458;2022-11-15T11:25:16;100514.22;;;15.36;56.41
41945;BME280;63122;52.424;13.458;2022-11-15T11:27:59;100511.38;;;15.37;56.79
41945;BME280;63122;52.424;13.458;2022-11-15T11:30:46;100511.91;;;14.81;57.41
41945;BME280;63122;52.424;13.458;2022-11-15T11:33:21;100517.59;;;14.01;60.88
41945;BME280;63122;52.424;13.458;2022-11-15T11:35:59;100512.59;;;13.83;61.36
41945;BME280;63122;52.424;13.458;2022-11-15T11:38:48;100509.03;;;14.67;59.90
41945;BME280;63122;52.424;13.458;2022-11-15T11:41:37;100494.75;;;15.72;55.92
41945;BME280;63122;52.424;13.458;2022-11-15T11:44:20;100495.38;;;15.74;55.94
41945;BME280;63122;52.424;13.458;2022-11-15T11:47:00;100490.06;;;15.74;55.49
41945;BME280;63122;52.424;13.458;2022-11-15T11:49:36;100498.81;;;15.68;55.82
41945;BME280;63122;52.424;13.458;2022-11-15T11:52:13;100498.28;;;16.51;53.10
41945;BME280;63122;52.424;13.458;2022-11-15T11:54:52;100498.38;;;16.65;53.09
41945;BME280;63122;52.424;13.458;2022-11-15T11:57:33;100495.41;;;17.30;50.97
41945;BME280;63122;52.424;13.458;2022-11-15T12:00:16;100488.69;;;15.57;56.20
41945;BME280;63122;52.424;13.458;2022-11-15T12:03:01;100493.97;;;15.93;56.08
41945;BME280;63122;52.424;13.458;2022-11-15T12:05:36;100494.81;;;15.79;56.40
41945;BME280;63122;52.424;13.458;2022-11-15T12:08:25;100489.41;;;17.15;52.15
41945;BME280;63122;52.424;13.458;2022-11-15T12:11:03;100485.84;;;16.30;54.17
41945;BME280;63122;52.424;13.458;2022-11-15T12:13:38;100475.47;;;16.42;53.42
41945;BME280;63122;52.424;13.458;2022-11-15T12:16:12;100469.78;;;16.80;52.51
41945;BME280;63122;52.424;13.458;2022-11-15T12:22:33;100468.81;;;16.95;51.54
41945;BME280;63122;52.424;13.458;2022-11-15T12:25:14;100464.53;;;17.76;49.71
41945;BME280;63122;52.424;13.458;2022-11-15T12:27:49;100459.78;;;16.89;52.29
41945;BME280;63122;52.424;13.458;2022-11-15T12:30:21;100454.06;;;16.57;52.50
41945;BME280;63122;52.424;13.458;2022-11-15T12:32:54;100449.09;;;17.45;51.05
41945;BME280;63122;52.424;13.458;2022-11-15T12:35:34;100456.31;;;17.64;50.10
41945;BME280;63122;52.424;13.458;2022-11-15T12:38:09;100449.44;;;17.15;52.38
41945;BME280;63122;52.424;13.458;2022-11-15T12:41:13;100444.00;;;16.94;52.51
41945;BME280;63122;52.424;13.458;2022-11-15T12:43:45;100451.16;;;17.49;51.21
41945;BME280;63122;52.424;13.458;2022-11-15T12:46:21;100441.88;;;17.25;50.32
41945;BME280;63122;52.424;13.458;2022-11-15T12:48:56;100438.19;;;17.19;52.77
41945;BME280;63122;52.424;13.458;2022-11-15T12:54:58;100436.00;;;17.56;51.09
41945;BME280;63122;52.424;13.458;2022-11-15T12:57:37;100432.03;;;18.47;47.39
41945;BME280;63122;52.424;13.458;2022-11-15T13:03:23;100423.88;;;17.88;50.35
41945;BME280;63122;52.424;13.458;2022-11-15T13:06:09;100422.03;;;17.95;49.67
41945;BME280;63122;52.424;13.458;2022-11-15T13:08:48;100424.91;;;17.80;50.04
41945;BME280;63122;52.424;13.458;2022-11-15T13:11:52;100424.06;;;18.33;47.92
41945;BME280;63122;52.424;13.458;2022-11-15T13:14:39;100415.53;;;19.16;45.04
41945;BME280;63122;52.424;13.458;2022-11-15T13:17:25;100415.94;;;19.19;44.70
41945;BME280;63122;52.424;13.458;2022-11-15T13:20:00;100414.06;;;19.20;44.44
41945;BME280;63122;52.424;13.458;2022-11-15T13:22:38;100417.97;;;18.71;46.41
41945;BME280;63122;52.424;13.458;2022-11-15T13:28:25;100410.53;;;18.15;47.05
41945;BME280;63122;52.424;13.458;2022-11-15T13:30:59;100409.09;;;18.12;48.00
41945;BME280;63122;52.424;13.458;2022-11-15T13:33:32;100401.94;;;18.06;48.71
41945;BME280;63122;52.424;13.458;2022-11-15T13:36:07;100406.38;;;18.46;48.31
41945;BME280;63122;52.424;13.458;2022-11-15T13:38:40;100399.66;;;17.69;48.42
41945;BME280;63122;52.424;13.458;2022-11-15T13:41:17;100397.22;;;17.94;48.59